Impacts METAR Board INFO
IDs:

KSEA - Seattle-Tacoma Intl, WA, US

Updated at: 0130 UTC 13 Dec 2017
Potential Impact None Slight Moderate High
Time12/13Z 12/14Z 12/15Z 12/16Z 12/17Z 12/18Z 12/19Z 12/20Z 12/21Z 12/22Z 12/23Z 13/00Z 13/01Z
VIS10 10 10 10 10 10 10 10 10 10 10 10 10
CIG-- 100 90 90 70 65 60 60 60 50 250 250 --
CoverSCTOVCOVCOVCOVCOVCOVCBKNBKNBKNBKNBKNSCT
FltCatVFRVFRVFRVFRVFRVFRVFRVFRVFRVFRVFRVFRVFR
WX--------------------------
WDir1303403301000020080280280310350
WSpd3 5 3 6 0 0 0 3 3 3 3 5 4
WGst-- -- -- -- -- -- -- -- -- -- -- -- --
Raw hourly METARs
KSEA 121253Z 13003KT 10SM FEW110 SCT220 01/M04 A3043 RMK AO2 SLP313 T00061039 $
KSEA 121353Z 34005KT 10SM BKN100 OVC200 01/M04 A3043 RMK AO2 SLP315 T00061039
KSEA 121453Z 33003KT 10SM BKN090 OVC200 02/M03 A3044 RMK AO2 SLP319 T00221033 53001
KSEA 121553Z 01006KT 10SM FEW050 BKN090 OVC200 03/M02 A3047 RMK AO2 SLP326 T00281017
KSEA 121653Z 00000KT 10SM FEW050 BKN070 OVC200 05/M01 A3047 RMK AO2 SLP328 T00501006
KSEA 121753Z 00000KT 10SM FEW045 BKN065 OVC200 05/M01 A3048 RMK AO2 SLP331 T00501006 10050 20000 51012
KSEA 121853Z 00000KT 10SM BKN060 OVC200 06/00 A3048 RMK AO2 SLP331 T00560000
KSEA 121953Z 20003KT 10SM BKN060 BKN150 06/M01 A3047 RMK AO2 SLP327 T00611006
KSEA 122053Z 08003KT 10SM BKN060 BKN150 07/M03 A3044 RMK AO2 SLP316 T00721033 58014
KSEA 122153Z 28003KT 10SM BKN050 BKN140 BKN200 07/01 A3041 RMK AO2 SLP309 T00720006
KSEA 122253Z 28003KT 10SM FEW060 SCT140 BKN250 07/02 A3040 RMK AO2 SLP305 T00720017
KSEA 122353Z 31005KT 10SM FEW060 SCT140 BKN250 07/01 A3040 RMK AO2 SLP304 ACSL DSNT SE T00670011 10078 20050 56013
KSEA 130053Z 35004KT 10SM SCT140 SCT250 05/01 A3040 RMK AO2 SLP303 ACSL DSNT SE T00500011